La Mesa, CA (91943)

10:27 AM PDT on October 02, 2014 (GMT -0700)
KCALAMES9 | Change Station
CLOSE
Current Station
Personal Weather Station
Location: La Mesa, CA
Elevation: 676 ft
Nearby Weather Stations
Active Advisory: Heat Advisory

Elev 676 ft 32.79 °N, 117.01 °W | Updated 1 second ago

Clear
Clear
87.5 °F
Feels Like 84 °F
N
1.0
Wind Variable Wind from ENE
Gusts 1.0 mph

Today
High -- | Low -- °F
--% Chance of Precip.
Yesterday
High -- | Low -- °F
Precip. -- in
6:42 AM 6:31 PM
First Quarter, 60% visible
Pressure 29.97 in
Visibility 10.0 miles
Clouds Clear
Heat Index 84 °F
Dew Point 45 °F
Humidity 23%
Rainfall 0.00 in
Snow Depth 0 in , 0 in , 0 in
UV 5 out of 12
Pollen 5.40 out of 12
Ozone Good
PM2.5 Good
Flu Activity Not available.
METAR KSEE 021715Z AUTO 00000KT 10SM CLR 29/08 A2997 RMK AO2

More Conditions Fewer Conditions

Pressure 29.97 in
Visibility 10.0 miles
Clouds Clear
Heat Index 84 °F
Dew Point 45 °F
Humidity 23%
Rainfall 0.00 in
Snow Depth 0 in , 0 in , 0 in
UV 5 out of 12
Pollen 5.40 out of 12
Ozone Good
PM2.5 Good
Flu Activity Not available.
METAR KSEE 021715Z AUTO 00000KT 10SM CLR 29/08 A2997 RMK AO2

More Conditions Fewer Conditions

10-Day Weather Forecast

Almanac

Astronomy

Oct. 02, 2014 Rise Set
Actual Time 6:42 AM PDT 6:31 PM PDT
Civil Twilight 6:18 AM PDT 6:55 PM PDT
Nautical Twilight 5:49 AM PDT 7:24 PM PDT
Astronomical Twilight 5:21 AM PDT 7:52 PM PDT
Moon 2:24 PM PDT 12:22 AM PDT
Length of Visible Light 12h 37m
Length of Day
11h 48m
Tomorrow will be 1m 59s shorter.
First Quarter, 60% of the Moon is Illuminated
Today
First Quarter
Oct 8
Full
Oct 15
Last Quarter
Oct 23
New
Oct 30
First Quarter

Today's Extremes

State Highs State Lows

Community

WunderPhotos

Upload Photos

1,758,304 photos uploaded!

Nearby

Air Quality

  Air Quality AQ Index Pollutant
Yesterday Moderate
PM2.5
Yesterday Good
OZONE
Current Good
PM2.5
Current Good
OZONE
Thursday Moderate
OZONE
Thursday Good
PM2.5

Snow Depth

Station Depth Elevation
Forestdale Creek 0 in 8029 ft
Truckee #2 0 in 6400 ft
Sonora Pass 0 in 8800 ft
Rubicon #2 1 in 7500 ft
Leavitt Meadows 0 in 7200 ft

Earthquake Activity

City Distance Mag. Time & Date
Avalon, California 79 miles 3.3 10:12 PM PDT
2014-10-01
Avalon, California 79 miles 2.6 1:28 PM PDT
2014-09-30
Minimum magnitude displayed is 2.5.

Coastal Water Temperatures

Place Temperature
La Jolla, CA 71.1 °F
San Diego, CA 73.0 °F

Nearby Weather Stations